createdAt,value
2023-04-18T00:02:17.915Z,5.50
2023-04-18T00:04:46.504Z,5.60
2023-04-18T00:07:15.389Z,5.20
2023-04-18T00:09:43.950Z,5.60
2023-04-18T00:12:12.372Z,4.80
2023-04-18T00:14:40.932Z,5.30
2023-04-18T00:17:08.980Z,4.90
2023-04-18T00:19:43.517Z,4.50
2023-04-18T00:22:11.565Z,5.10
2023-04-18T00:24:42.488Z,4.90
2023-04-18T00:27:10.678Z,5.20
2023-04-18T00:29:40.640Z,5.90
2023-04-18T00:32:08.709Z,5.50
2023-04-18T00:34:37.891Z,6.00
2023-04-18T00:37:06.813Z,5.70
2023-04-18T00:39:37.596Z,5.50
2023-04-18T00:42:05.852Z,5.20
2023-04-18T00:44:34.604Z,5.00
2023-04-18T00:47:02.696Z,5.20
2023-04-18T00:49:30.947Z,5.50
2023-04-18T00:51:58.857Z,5.00
2023-04-18T00:54:27.408Z,5.20
2023-04-18T00:56:55.432Z,5.20
2023-04-18T00:59:23.385Z,4.70
2023-04-18T01:01:51.515Z,5.30
2023-04-18T01:04:20.219Z,4.80
2023-04-18T01:06:48.587Z,4.90
2023-04-18T01:09:16.944Z,5.20
2023-04-18T01:11:46.299Z,5.30
2023-04-18T01:14:14.466Z,4.70
2023-04-18T01:16:44.047Z,5.10
2023-04-18T01:19:13.282Z,4.70
2023-04-18T01:21:44.079Z,4.80
2023-04-18T01:24:15.632Z,4.50
2023-04-18T01:26:45.020Z,3.60
2023-04-18T01:29:12.965Z,4.80
2023-04-18T01:31:41.539Z,4.90
2023-04-18T01:34:09.659Z,4.80
2023-04-18T01:36:38.896Z,4.70
2023-04-18T01:39:07.338Z,4.80
2023-04-18T01:41:35.521Z,4.90
2023-04-18T01:44:03.878Z,5.00
2023-04-18T01:46:32.113Z,5.00
2023-04-18T01:51:31.372Z,5.20
2023-04-18T01:53:59.632Z,5.10
2023-04-18T01:56:27.907Z,5.60
2023-04-18T01:58:56.220Z,5.20
2023-04-18T02:01:24.581Z,5.50
2023-04-18T02:03:53.177Z,5.20
2023-04-18T02:06:21.650Z,5.10
2023-04-18T02:08:49.507Z,5.30
2023-04-18T02:11:17.596Z,5.30
2023-04-18T02:13:46.026Z,5.20
2023-04-18T02:16:14.418Z,4.90
2023-04-18T02:18:44.694Z,5.20
2023-04-18T02:21:15.110Z,5.30
2023-04-18T02:23:43.107Z,5.40
2023-04-18T02:26:11.253Z,5.10
2023-04-18T02:28:39.399Z,5.30
2023-04-18T02:31:07.942Z,5.20
2023-04-18T02:33:36.167Z,4.70
2023-04-18T02:36:04.488Z,5.80
2023-04-18T02:38:33.208Z,5.30
2023-04-18T02:41:01.614Z,4.90
2023-04-18T02:43:29.584Z,5.20
2023-04-18T02:45:58.069Z,5.50
2023-04-18T02:48:26.181Z,5.30
2023-04-18T02:51:04.184Z,5.70
2023-04-18T02:53:32.883Z,5.70
2023-04-18T02:56:00.775Z,5.20
2023-04-18T02:58:37.360Z,5.60
2023-04-18T03:01:29.277Z,5.30
2023-04-18T03:04:10.585Z,5.20
2023-04-18T03:06:48.455Z,5.60
2023-04-18T03:09:17.271Z,5.10
2023-04-18T03:11:48.389Z,5.80
2023-04-18T03:14:16.679Z,5.30
2023-04-18T03:16:53.832Z,5.10
2023-04-18T03:19:26.016Z,5.30
2023-04-18T03:21:55.060Z,5.40
2023-04-18T03:24:23.428Z,5.80
2023-04-18T03:26:53.294Z,5.20
2023-04-18T03:29:23.354Z,5.60
2023-04-18T03:31:52.644Z,5.50
2023-04-18T03:34:20.937Z,5.50
2023-04-18T03:36:49.518Z,5.00
2023-04-18T03:39:17.860Z,5.20
2023-04-18T03:41:46.306Z,5.30
2023-04-18T03:44:14.966Z,5.30
2023-04-18T03:46:43.253Z,5.30
2023-04-18T03:49:11.425Z,5.00
2023-04-18T03:51:44.263Z,5.10
2023-04-18T03:54:12.468Z,5.30
2023-04-18T03:56:41.302Z,5.10
2023-04-18T03:59:10.357Z,5.20
2023-04-18T04:01:38.416Z,5.50
2023-04-18T04:04:06.744Z,5.50
2023-04-18T04:06:35.156Z,5.40
2023-04-18T04:09:03.230Z,5.50
2023-04-18T04:11:32.676Z,5.10
2023-04-18T04:14:01.531Z,5.10
2023-04-18T04:16:35.225Z,5.50
2023-04-18T04:19:04.694Z,5.40
2023-04-18T04:21:38.266Z,5.00
2023-04-18T04:24:07.117Z,5.30
2023-04-18T04:26:43.422Z,5.20
2023-04-18T04:29:16.515Z,4.60
2023-04-18T04:31:45.919Z,5.00
2023-04-18T04:34:16.921Z,5.00
2023-04-18T04:36:45.634Z,5.00
2023-04-18T04:39:17.604Z,5.40
2023-04-18T04:42:05.780Z,4.90
2023-04-18T04:44:42.928Z,5.20
2023-04-18T04:47:11.249Z,5.40
2023-04-18T04:49:39.777Z,5.30
2023-04-18T04:52:07.962Z,5.30
2023-04-18T04:54:36.368Z,5.30
2023-04-18T04:57:05.515Z,5.10
2023-04-18T04:59:33.562Z,5.70
2023-04-18T05:02:01.785Z,5.60
2023-04-18T05:04:31.508Z,5.40
2023-04-18T05:06:59.623Z,5.50
2023-04-18T05:09:27.532Z,5.80
2023-04-18T05:11:55.924Z,5.10
2023-04-18T05:14:23.970Z,5.00
2023-04-18T05:16:52.098Z,5.20
2023-04-18T05:19:20.444Z,5.20
2023-04-18T05:21:48.616Z,5.50
2023-04-18T05:24:16.746Z,5.80
2023-04-18T05:26:44.856Z,5.90
2023-04-18T05:29:12.772Z,5.70
2023-04-18T05:31:40.717Z,5.30
2023-04-18T05:34:08.729Z,5.00
2023-04-18T05:36:37.202Z,5.10
2023-04-18T05:39:05.197Z,5.50
2023-04-18T05:41:34.224Z,5.30
2023-04-18T05:44:05.811Z,5.70
2023-04-18T05:46:34.099Z,5.70
2023-04-18T05:49:02.174Z,5.10
2023-04-18T05:51:31.429Z,5.40
2023-04-18T05:53:59.747Z,4.70
2023-04-18T05:56:27.759Z,5.10
2023-04-18T05:58:55.961Z,4.80
2023-04-18T06:01:23.864Z,4.90
2023-04-18T06:03:52.064Z,5.00
2023-04-18T06:06:20.395Z,4.30
2023-04-18T06:08:48.390Z,4.70
2023-04-18T06:11:16.484Z,5.00
2023-04-18T06:13:44.375Z,4.90
2023-04-18T06:16:12.477Z,5.00
2023-04-18T06:18:40.484Z,4.80
2023-04-18T06:21:08.683Z,5.10
2023-04-18T06:23:38.613Z,4.70
2023-04-18T06:26:07.183Z,4.90
2023-04-18T06:28:35.385Z,5.10
2023-04-18T06:31:03.315Z,4.50
2023-04-18T06:33:33.469Z,4.70
2023-04-18T06:36:01.652Z,4.40
2023-04-18T06:38:30.390Z,4.50
2023-04-18T06:40:58.441Z,4.90
2023-04-18T06:43:26.687Z,4.60
2023-04-18T06:45:56.765Z,3.80
2023-04-18T06:48:25.083Z,4.20
2023-04-18T06:50:53.642Z,3.80
2023-04-18T06:53:21.922Z,4.10
2023-04-18T06:55:49.935Z,4.10
2023-04-18T06:58:17.917Z,3.80
2023-04-18T07:00:49.068Z,4.20
2023-04-18T07:03:18.333Z,4.20
2023-04-18T07:05:46.679Z,3.80
2023-04-18T07:08:14.932Z,4.10
2023-04-18T07:10:43.632Z,3.90
2023-04-18T07:13:11.646Z,3.70
2023-04-18T07:15:39.890Z,3.60
2023-04-18T07:18:08.224Z,4.20
2023-04-18T07:20:36.343Z,3.70
2023-04-18T07:23:04.927Z,3.60
2023-04-18T07:25:33.124Z,4.10
2023-04-18T07:28:19.471Z,3.70
2023-04-18T07:31:41.530Z,3.70
2023-04-18T07:34:43.933Z,4.80
2023-04-18T07:37:24.308Z,4.60
2023-04-18T07:39:53.769Z,3.80
2023-04-18T07:42:21.963Z,3.80
2023-04-18T07:44:49.834Z,4.10
2023-04-18T07:47:22.356Z,3.80
2023-04-18T07:49:50.919Z,3.80
2023-04-18T07:52:19.160Z,3.90
2023-04-18T07:54:47.295Z,4.00
2023-04-18T07:57:15.459Z,3.70
2023-04-18T07:59:43.403Z,4.20
2023-04-18T08:02:11.351Z,4.20
2023-04-18T08:04:39.588Z,3.50
2023-04-18T08:07:07.694Z,4.00
2023-04-18T08:09:35.805Z,4.20
2023-04-18T08:12:03.964Z,3.80
2023-04-18T08:14:32.197Z,3.90
2023-04-18T08:17:00.251Z,3.50
2023-04-18T08:19:28.148Z,3.10
2023-04-18T08:22:06.841Z,3.60
2023-04-18T08:24:35.066Z,3.50
2023-04-18T08:27:03.506Z,2.90
2023-04-18T08:29:31.764Z,3.20
2023-04-18T08:31:59.916Z,2.90
2023-04-18T08:34:29.463Z,3.10
2023-04-18T08:36:57.351Z,2.90
2023-04-18T08:39:25.577Z,2.90
2023-04-18T08:41:57.463Z,2.70
2023-04-18T08:44:27.937Z,2.70
2023-04-18T08:46:57.613Z,2.80
2023-04-18T08:49:25.904Z,3.10
2023-04-18T08:51:53.973Z,2.20
2023-04-18T08:54:22.540Z,2.50
2023-04-18T08:57:07.461Z,2.30
2023-04-18T08:59:36.690Z,2.40
2023-04-18T09:02:06.762Z,2.40
2023-04-18T09:04:38.870Z,2.70
2023-04-18T09:07:08.802Z,2.10
2023-04-18T09:12:26.592Z,2.50
2023-04-18T09:14:57.940Z,2.00
2023-04-18T09:17:34.880Z,2.40
2023-04-18T09:20:05.273Z,2.10
2023-04-18T09:22:50.615Z,2.10
2023-04-18T09:25:35.153Z,2.20
2023-04-18T09:28:04.787Z,2.10
2023-04-18T09:30:40.911Z,1.80
2023-04-18T09:33:10.847Z,1.90
2023-04-18T09:38:07.892Z,1.70
2023-04-18T09:40:36.113Z,2.10
2023-04-18T09:43:19.840Z,2.00
2023-04-18T09:45:50.743Z,1.80
2023-04-18T09:48:19.982Z,1.90
2023-04-18T09:50:48.243Z,2.00
2023-04-18T09:53:18.264Z,2.50
2023-04-18T09:55:54.830Z,2.10
2023-04-18T09:58:25.507Z,1.90
2023-04-18T10:00:53.878Z,1.50
2023-04-18T10:03:22.060Z,1.90
2023-04-18T10:05:50.228Z,1.80
2023-04-18T10:08:19.114Z,1.90
2023-04-18T10:10:47.089Z,1.90
2023-04-18T10:13:15.143Z,1.70
2023-04-18T10:15:44.281Z,1.60
2023-04-18T10:18:19.003Z,2.10
2023-04-18T10:20:47.026Z,1.80
2023-04-18T10:23:50.532Z,2.00
2023-04-18T10:26:19.756Z,1.70
2023-04-18T10:28:58.068Z,1.90
2023-04-18T10:31:27.322Z,2.30
2023-04-18T10:36:30.552Z,1.90
2023-04-18T10:39:21.883Z,2.00
2023-04-18T10:41:51.066Z,2.00
2023-04-18T10:44:22.021Z,1.90
2023-04-18T10:46:53.446Z,2.10
2023-04-18T10:49:31.134Z,1.80
2023-04-18T10:52:01.931Z,2.10
2023-04-18T10:57:48.145Z,2.10
2023-04-18T11:00:18.023Z,1.90
2023-04-18T11:02:56.206Z,1.80
2023-04-18T11:05:28.229Z,2.50
2023-04-18T11:07:56.376Z,2.00
2023-04-18T11:10:26.677Z,1.90
2023-04-18T11:12:55.599Z,1.80
2023-04-18T11:15:24.862Z,1.70
2023-04-18T11:18:03.705Z,2.20
2023-04-18T11:20:49.330Z,2.00
2023-04-18T11:23:25.147Z,1.90
2023-04-18T11:25:59.155Z,1.90
2023-04-18T11:28:29.956Z,2.00
2023-04-18T11:30:59.676Z,2.00
2023-04-18T11:33:28.872Z,2.30
2023-04-18T11:35:57.672Z,1.80
2023-04-18T11:38:30.863Z,1.90
2023-04-18T11:41:00.487Z,2.00
2023-04-18T11:43:28.653Z,1.80
2023-04-18T11:45:58.761Z,2.10
2023-04-18T11:48:40.018Z,2.10
2023-04-18T11:51:09.649Z,2.00
2023-04-18T11:53:38.625Z,1.90
2023-04-18T11:56:07.234Z,2.00
2023-04-18T11:58:36.348Z,1.70
2023-04-18T12:01:20.574Z,1.80
2023-04-18T12:04:02.160Z,1.90
2023-04-18T12:06:50.440Z,2.10
2023-04-18T12:09:19.102Z,1.90
2023-04-18T12:12:01.120Z,2.00
2023-04-18T12:14:30.270Z,2.00
2023-04-18T12:16:58.530Z,2.10
2023-04-18T12:19:28.241Z,2.00
2023-04-18T12:21:57.926Z,2.70
2023-04-18T12:24:27.014Z,2.00
2023-04-18T12:26:55.873Z,1.90
2023-04-18T12:29:24.673Z,2.10
2023-04-18T12:31:52.827Z,2.00
2023-04-18T12:34:21.126Z,2.00
2023-04-18T12:36:50.291Z,2.10
2023-04-18T12:39:18.674Z,1.80
2023-04-18T12:41:49.038Z,2.00
2023-04-18T12:44:18.393Z,2.20
2023-04-18T12:46:46.520Z,2.10
2023-04-18T12:49:14.625Z,2.00
2023-04-18T12:51:43.931Z,2.00
2023-04-18T12:54:11.943Z,2.30
2023-04-18T12:56:40.003Z,2.30
2023-04-18T12:59:08.148Z,2.10
2023-04-18T13:01:36.827Z,2.10
2023-04-18T13:04:12.429Z,2.10
2023-04-18T13:06:41.606Z,2.20
2023-04-18T13:09:10.507Z,2.20
2023-04-18T13:11:38.642Z,2.10
2023-04-18T13:14:06.607Z,2.30
2023-04-18T13:16:35.058Z,2.20
2023-04-18T13:19:03.557Z,2.10
2023-04-18T13:21:31.845Z,2.30
2023-04-18T13:23:59.786Z,2.40
2023-04-18T13:26:27.849Z,2.40
2023-04-18T13:28:56.068Z,2.20
2023-04-18T13:31:24.335Z,2.20
2023-04-18T13:33:52.374Z,2.10
2023-04-18T13:36:20.748Z,2.10
2023-04-18T13:38:48.945Z,2.10
2023-04-18T13:41:17.120Z,1.80
2023-04-18T13:43:45.067Z,2.10
2023-04-18T13:46:13.036Z,2.10
2023-04-18T13:48:41.123Z,1.90
2023-04-18T13:51:09.094Z,2.30
2023-04-18T13:53:37.903Z,2.30
2023-04-18T13:56:06.705Z,2.50
2023-04-18T13:58:34.950Z,2.30
2023-04-18T14:01:02.923Z,2.10
2023-04-18T14:03:32.394Z,2.20
2023-04-18T14:06:01.586Z,2.30
2023-04-18T14:08:29.859Z,2.20
2023-04-18T14:10:57.909Z,2.20
2023-04-18T14:13:26.128Z,1.90
2023-04-18T14:15:54.217Z,2.20
2023-04-18T14:18:23.621Z,2.30
2023-04-18T14:20:51.859Z,1.50
2023-04-18T14:23:20.272Z,2.00
2023-04-18T14:25:48.308Z,2.30
2023-04-18T14:28:19.204Z,2.40
2023-04-18T14:30:47.235Z,2.00
2023-04-18T14:33:15.575Z,2.30
2023-04-18T14:35:44.093Z,2.20
2023-04-18T14:38:12.043Z,2.10
2023-04-18T14:40:39.940Z,2.20
2023-04-18T14:43:07.964Z,2.20
2023-04-18T14:45:36.660Z,1.90
2023-04-18T14:48:06.856Z,2.10
2023-04-18T14:50:38.906Z,2.50
2023-04-18T14:53:08.139Z,2.10
2023-04-18T14:55:36.738Z,2.40
2023-04-18T14:58:05.026Z,2.00
2023-04-18T15:00:33.529Z,2.40
2023-04-18T15:03:01.701Z,2.50
2023-04-18T15:05:29.878Z,2.40
2023-04-18T15:07:58.192Z,2.60
2023-04-18T15:10:26.661Z,2.40
2023-04-18T15:12:54.932Z,2.50
2023-04-18T15:15:23.129Z,2.70
2023-04-18T15:17:51.165Z,2.60
2023-04-18T15:20:20.416Z,2.10
2023-04-18T15:22:49.965Z,2.30
2023-04-18T15:25:18.208Z,2.20
2023-04-18T15:27:46.271Z,2.30
2023-04-18T15:30:14.435Z,2.20
2023-04-18T15:32:44.262Z,2.30
2023-04-18T15:35:12.905Z,2.40
2023-04-18T15:37:41.608Z,2.40
2023-04-18T15:40:11.568Z,2.40
2023-04-18T15:42:40.267Z,2.50
2023-04-18T15:45:09.730Z,2.40
2023-04-18T15:50:08.364Z,2.40
2023-04-18T15:52:36.743Z,2.30
2023-04-18T15:55:05.463Z,2.60
2023-04-18T15:57:34.375Z,2.30
2023-04-18T16:00:02.698Z,2.50
2023-04-18T16:02:33.568Z,2.50
2023-04-18T16:05:01.657Z,2.20
2023-04-18T16:07:30.113Z,2.40
2023-04-18T16:09:58.502Z,2.50
2023-04-18T16:12:26.808Z,2.40
2023-04-18T16:14:54.883Z,2.50
2023-04-18T16:17:22.948Z,2.50
2023-04-18T16:19:51.289Z,2.60
2023-04-18T16:22:19.338Z,2.50
2023-04-18T16:24:47.522Z,2.20
2023-04-18T16:27:15.737Z,2.40
2023-04-18T16:29:44.713Z,2.30
2023-04-18T16:32:13.181Z,2.00
2023-04-18T16:34:41.238Z,2.50
2023-04-18T16:37:09.179Z,2.10
2023-04-18T16:39:37.688Z,2.40
2023-04-18T16:42:06.148Z,2.30
2023-04-18T16:44:34.967Z,2.50
2023-04-18T16:47:05.194Z,3.00
2023-04-18T16:49:33.370Z,2.40
2023-04-18T16:52:02.132Z,2.40
2023-04-18T16:54:30.721Z,2.30
2023-04-18T16:56:58.713Z,2.60
2023-04-18T16:59:26.752Z,2.40
2023-04-18T17:01:55.028Z,2.40
2023-04-18T17:04:23.448Z,3.70
2023-04-18T17:06:52.166Z,3.00
2023-04-18T17:09:20.637Z,3.00
2023-04-18T17:11:48.867Z,3.00
2023-04-18T17:14:18.484Z,2.70
2023-04-18T17:16:46.927Z,2.40
2023-04-18T17:19:15.339Z,2.70
2023-04-18T17:21:44.192Z,2.40
2023-04-18T17:24:16.070Z,2.90
2023-04-18T17:26:44.510Z,2.80
2023-04-18T17:29:12.772Z,2.50
2023-04-18T17:31:41.045Z,2.10
2023-04-18T17:34:09.111Z,2.70
2023-04-18T17:36:37.626Z,2.40
2023-04-18T17:39:06.579Z,2.50
2023-04-18T17:41:40.419Z,2.50
2023-04-18T17:44:10.331Z,2.70
2023-04-18T17:49:06.965Z,2.50
2023-04-18T17:51:35.131Z,2.80
2023-04-18T17:54:05.490Z,2.90
2023-04-18T17:56:34.090Z,3.20
2023-04-18T17:59:02.745Z,2.70
2023-04-18T18:01:31.536Z,2.60
2023-04-18T18:03:59.822Z,2.10
2023-04-18T18:06:28.276Z,2.60
2023-04-18T18:08:56.757Z,2.20
2023-04-18T18:11:24.863Z,2.80
2023-04-18T18:13:55.781Z,2.60
2023-04-18T18:16:24.540Z,2.80
2023-04-18T18:18:53.133Z,2.40
2023-04-18T18:21:21.416Z,2.30
2023-04-18T18:23:49.486Z,2.50
2023-04-18T18:26:17.682Z,2.90
2023-04-18T18:28:45.760Z,2.90
2023-04-18T18:31:14.563Z,2.50
2023-04-18T18:33:42.627Z,2.90
2023-04-18T18:36:10.845Z,2.90
2023-04-18T18:38:39.084Z,2.80
2023-04-18T18:41:07.933Z,2.50
2023-04-18T18:43:36.215Z,2.70
2023-04-18T18:46:04.365Z,2.50
2023-04-18T18:48:33.029Z,2.40
2023-04-18T18:51:01.131Z,2.40
2023-04-18T18:53:29.217Z,2.30
2023-04-18T18:55:57.189Z,2.30
2023-04-18T18:58:25.259Z,2.60
2023-04-18T19:00:54.621Z,2.20
2023-04-18T19:03:23.487Z,2.50
2023-04-18T19:05:51.827Z,2.70
2023-04-18T19:08:20.161Z,3.90
2023-04-18T19:10:48.137Z,3.20
2023-04-18T19:13:16.316Z,3.00
2023-04-18T19:15:44.416Z,2.80
2023-04-18T19:18:12.565Z,2.80
2023-04-18T19:20:41.745Z,2.90
2023-04-18T19:23:09.898Z,2.20
2023-04-18T19:25:38.045Z,3.10
2023-04-18T19:28:06.428Z,3.50
2023-04-18T19:30:34.777Z,3.40
2023-04-18T19:33:02.862Z,4.10
2023-04-18T19:35:31.339Z,4.10
2023-04-18T19:38:01.978Z,4.50
2023-04-18T19:40:30.077Z,4.40
2023-04-18T19:42:58.448Z,5.10
2023-04-18T19:45:26.774Z,5.10
2023-04-18T19:47:55.160Z,5.40
2023-04-18T19:50:23.168Z,4.70
2023-04-18T19:52:51.390Z,4.80
2023-04-18T19:55:19.627Z,5.40
2023-04-18T19:57:47.778Z,5.20
2023-04-18T20:00:16.812Z,4.70
2023-04-18T20:02:44.966Z,5.30
2023-04-18T20:05:13.296Z,5.20
2023-04-18T20:07:42.081Z,4.80
2023-04-18T20:10:10.970Z,4.60
2023-04-18T20:12:40.093Z,4.60
2023-04-18T20:15:08.842Z,4.50
2023-04-18T20:17:37.209Z,4.40
2023-04-18T20:20:08.318Z,4.30
2023-04-18T20:22:38.143Z,3.70
2023-04-18T20:25:07.244Z,3.90
2023-04-18T20:27:35.503Z,4.10
2023-04-18T20:30:03.998Z,4.00
2023-04-18T20:32:33.667Z,4.30
2023-04-18T20:35:02.932Z,3.90
2023-04-18T20:37:36.884Z,4.20
2023-04-18T20:40:07.964Z,4.00
2023-04-18T20:42:39.108Z,4.10
2023-04-18T20:45:11.294Z,3.90
2023-04-18T20:47:41.504Z,4.20
2023-04-18T20:50:10.705Z,4.40
2023-04-18T20:52:42.526Z,4.40
2023-04-18T20:55:11.092Z,3.80
2023-04-18T20:57:39.213Z,3.90
2023-04-18T21:00:09.435Z,4.40
2023-04-18T21:02:37.574Z,3.90
2023-04-18T21:05:06.227Z,3.90
2023-04-18T21:07:35.296Z,4.00
2023-04-18T21:10:04.149Z,4.40
2023-04-18T21:12:32.202Z,4.20
2023-04-18T21:15:00.559Z,4.50
2023-04-18T21:17:28.850Z,5.10
2023-04-18T21:19:56.945Z,4.50
2023-04-18T21:22:24.888Z,4.60
2023-04-18T21:24:52.827Z,4.80
2023-04-18T21:27:20.882Z,5.20
2023-04-18T21:29:48.744Z,5.40
2023-04-18T21:32:16.623Z,5.60
2023-04-18T21:34:44.762Z,5.90
2023-04-18T21:37:12.751Z,6.10
2023-04-18T21:39:42.578Z,5.60
2023-04-18T21:42:10.984Z,6.50
2023-04-18T21:44:39.204Z,6.70
2023-04-18T21:47:07.144Z,6.30
2023-04-18T21:49:35.139Z,5.80
2023-04-18T21:52:03.123Z,6.10
2023-04-18T21:54:31.278Z,6.10
2023-04-18T21:56:59.343Z,5.40
2023-04-18T21:59:27.484Z,4.80
2023-04-18T22:01:55.667Z,5.00
2023-04-18T22:04:26.015Z,5.70
2023-04-18T22:06:54.522Z,5.40
2023-04-18T22:09:22.677Z,4.80
2023-04-18T22:11:56.897Z,4.50
2023-04-18T22:14:26.149Z,5.10
2023-04-18T22:16:54.782Z,4.50
2023-04-18T22:19:22.884Z,4.40
2023-04-18T22:21:51.240Z,3.90
2023-04-18T22:24:19.871Z,4.10
2023-04-18T22:26:48.416Z,4.00
2023-04-18T22:29:16.335Z,3.40
2023-04-18T22:31:44.315Z,3.90
2023-04-18T22:34:12.720Z,3.40
2023-04-18T22:36:42.738Z,4.10
2023-04-18T22:39:12.140Z,3.40
2023-04-18T22:41:40.240Z,3.30
2023-04-18T22:44:08.505Z,3.50
2023-04-18T22:49:06.290Z,3.10
2023-04-18T22:51:34.616Z,3.30
2023-04-18T22:54:02.653Z,3.20
2023-04-18T22:56:31.190Z,3.60
2023-04-18T22:58:59.217Z,3.10
2023-04-18T23:01:27.195Z,3.40
2023-04-18T23:03:55.447Z,2.90
2023-04-18T23:06:23.820Z,3.10
2023-04-18T23:08:52.204Z,3.00
2023-04-18T23:11:21.233Z,2.90
2023-04-18T23:14:43.627Z,3.10
2023-04-18T23:17:11.455Z,3.30
2023-04-18T23:19:39.652Z,3.20
2023-04-18T23:22:07.911Z,3.20
2023-04-18T23:24:36.477Z,2.90
2023-04-18T23:27:04.480Z,3.00
2023-04-18T23:29:37.262Z,2.80
2023-04-18T23:32:05.440Z,3.00
2023-04-18T23:34:33.612Z,3.20
2023-04-18T23:37:01.748Z,3.00
2023-04-18T23:39:29.892Z,3.30
2023-04-18T23:41:58.074Z,3.20
2023-04-18T23:44:27.572Z,3.00
2023-04-18T23:46:55.565Z,3.40
2023-04-18T23:49:23.698Z,3.10
2023-04-18T23:51:51.709Z,3.30
2023-04-18T23:54:19.779Z,3.40
2023-04-18T23:56:47.752Z,3.50
2023-04-18T23:59:15.976Z,3.40
